• Join FlightAware (Why Join?)
  • Login
  • US Flag 
03:15AM EDT


 

Airport Tracker/Info


-or-


 

Live Flight TrackerFlight Track Log ✈ AWE3418 ✈ 16-Apr-2013 ✈ KCMH - KPHL

Flight Track Log - Related Links

Times and Time Zones

All times are in EDT time to prevent confusion due to time zone crossing. See the AWE3418 flight status page for this flight to view local times or setup timezone preferences in your user account.

Time Position Orientation Groundspeed Altitude Reporting Facility
EDT Latitude Longitude Course Direction KTS MPH feet Rate Location/Type
05:09PM 40.0044 -82.9131 81° East 160 184 1,500  Level Indianapolis Center
05:10PM 40.0358 -82.9261 342° North 180 207 3,100 2,340 Climbing Indianapolis Center
05:11PM 40.0622 -82.8486 66° East 265 305 5,800 3,060 Climbing Indianapolis Center
05:12PM 40.0384 -82.4831 83° East  Level FlightAware Approximate
05:12PM 40.0675 -82.7411 86° East 295 339 9,400  Level Indianapolis Center
05:13PM 40.0529 -82.3481 79° East  Level FlightAware Approximate
05:13PM 40.0964 -82.6242 72° East 352 405 11,900  Level Indianapolis Center
05:14PM 40.0735 -82.2144 79° East  Level FlightAware Approximate
05:14PM 40.1519 -82.5253 54° Northeast 338 389 16,000  Level Indianapolis Center
05:15PM 40.0921 -82.0803 81° East  Level FlightAware Approximate
05:15PM 40.1906 -82.4019 68° East 363 418 18,100  Level Indianapolis Center
05:16PM 40.2069 -82.2561 82° East 409 471 19,700 1,740 Climbing Indianapolis Center
05:17PM 40.2133 -82.0942 87° East 439 505 21,700 1,980 Climbing Indianapolis Center
05:18PM 40.2186 -81.9264 88° East 455 524 23,800 1,920 Climbing Indianapolis Center
05:19PM 40.2250 -81.7444 87° East 469 540 25,700 1,680 Climbing Indianapolis Center
05:20PM 40.2306 -81.5692 88° East 477 549 27,300 1,500 Climbing Indianapolis Center
05:21PM 40.2367 -81.4753 85° East 476 548 28,000 2,160 Climbing Cleveland Center
05:22PM 40.2400 -81.3039 88° East 476 548 30,600 1,500 Climbing Cleveland Center
05:23PM 40.2472 -81.1297 87° East 476 548 31,000 180 Climbing Cleveland Center
05:24PM 40.2522 -80.9503 88° East 481 554 31,000  Level Cleveland Center
05:25PM 40.2589 -80.7681 87° East 486 559 31,000  Level Cleveland Center
05:26PM 40.2611 -80.5914 89° East 491 565 31,000  Level Cleveland Center
05:27PM 40.2692 -80.4144 87° East 491 565 31,000  Level Cleveland Center
05:28PM 40.2731 -80.2211 88° East 491 565 31,000  Level Cleveland Center
05:29PM 40.2786 -80.0389 88° East 491 565 31,000  Level Cleveland Center
05:30PM 40.2878 -79.8564 86° East 497 572 31,000  Level Cleveland Center
05:31PM 40.2928 -79.6767 88° East 497 572 31,000  Level Cleveland Center
05:32PM 40.2997 -79.4997 87° East 497 572 31,000  Level Cleveland Center
05:33PM 40.3061 -79.3200 87° East 497 572 31,000  Level Cleveland Center
05:34PM 40.3064 -79.1592 90° East 492 566 31,000  Level Cleveland Center
05:35PM 40.3122 -78.9767 88° East 497 572 31,000  Level Cleveland Center
05:36PM 40.3158 -78.7994 88° East 497 572 31,000  Level Cleveland Center
05:37PM 40.3150 -78.6172 90° East 497 572 31,000 -600 Level Cleveland Center
05:39PM 40.3161 -78.2875 90° East 507 583 29,400 -1,560 Descending New York Center
05:40PM 40.3144 -78.1131 91° East 494 568 26,800 -2,220 Descending New York Center
05:41PM 40.3122 -77.9494 91° East 473 544 25,000 -900 Descending New York Center
05:42PM 40.3025 -77.7958 95° East 445 512 25,000 -180 Level New York Center
05:43PM 40.2858 -77.6556 99° East 435 501 24,700 -720 Descending New York Center
05:44PM 40.2678 -77.4986 99° East 430 495 23,700 -1,020 Descending New York Center
05:45PM 40.2511 -77.3500 98° East 430 495 22,700 -1,020 Descending New York Center
05:46PM 40.2289 -77.1847 100° East 425 489 21,700 -1,020 Descending New York Center
05:47PM 40.2119 -77.0364 98° East 418 481 20,700 -1,020 Descending New York Center
05:48PM 40.1947 -76.8881 99° East 413 475 19,700 -1,200 Descending New York Center
05:49PM 40.1783 -76.7561 99° East 413 475 18,400 -1,380 Descending New York Center
05:50PM 40.1606 -76.6133 99° East 413 475 16,900 -1,560 Descending New York Center
05:51PM 40.1408 -76.4622 100° East 397 457 15,300 -1,500 Descending New York Center
05:52PM 40.1278 -76.3542 99° East 378 435 14,200 -1,380 Descending FAA TRACON SMA TRACON (SMA)
05:52PM 40.1203 -76.3086 102° East 377 434 13,700 -1,500 Descending FAA TRACON SMA TRACON (SMA)
05:52PM 40.1172 -76.2608 95° East 374 430 13,200 -1,380 Descending FAA TRACON SMA TRACON (SMA)
05:53PM 40.1139 -76.2200 96° East 371 427 12,800 -1,380 Descending FAA TRACON SMA TRACON (SMA)
05:53PM 40.1114 -76.1689 94° East 366 421 12,300 -1,380 Descending FAA TRACON SMA TRACON (SMA)
05:53PM 40.1086 -76.1297 95° East 358 412 11,900 -1,200 Descending FAA TRACON SMA TRACON (SMA)
05:54PM 40.1061 -76.0906 95° East 356 410 11,500 -1,500 Descending FAA TRACON SMA TRACON (SMA)
05:54PM 40.1042 -76.0408 93° East 356 410 10,900 -1,560 Descending FAA TRACON SMA TRACON (SMA)
05:54PM 40.1003 -76.0014 97° East 355 409 10,500 -1,260 Descending FAA TRACON SMA TRACON (SMA)
05:54PM 40.0975 -75.9633 95° East 349 402 10,100 -1,080 Descending FAA TRACON SMA TRACON (SMA)
05:55PM 40.0942 -75.9250 96° East 336 387 9,800 -1,200 Descending FAA TRACON SMA TRACON (SMA)
05:55PM 40.0914 -75.8814 95° East 328 377 9,300 -1,380 Descending FAA TRACON SMA TRACON (SMA)
05:55PM 40.0886 -75.8453 96° East 325 374 8,900 -1,320 Descending FAA TRACON SMA TRACON (SMA)
05:56PM 40.0861 -75.7994 94° East 326 375 8,400 -1,200 Descending FAA TRACON SMA TRACON (SMA)
05:56PM 40.0833 -75.7636 96° East 324 373 8,100 -600 Descending FAA TRACON SMA TRACON (SMA)
05:57PM 40.0811 -75.7272 95° East 322 371 8,000 -180 Descending FAA TRACON SMA TRACON (SMA)
05:57PM 40.0789 -75.6839 94° East 319 367 8,000  Level FAA TRACON SMA TRACON (SMA)
05:57PM 40.0778 -75.6483 92° East 318 366 8,000  Level FAA TRACON SMA TRACON (SMA)
05:58PM 40.0764 -75.6133 93° East 319 367 8,000  Level FAA TRACON SMA TRACON (SMA)
05:58PM 40.0742 -75.5772 95° East 317 365 8,000  Level FAA TRACON SMA TRACON (SMA)
05:58PM 40.0717 -75.5325 94° East 319 367 8,000 -180 Level FAA TRACON SMA TRACON (SMA)
05:59PM 40.0697 -75.4972 94° East 318 366 7,900 -780 Descending FAA TRACON SMA TRACON (SMA)
05:59PM 40.0711 -75.4536 88° East 319 367 7,500 -1,080 Descending FAA TRACON SMA TRACON (SMA)
05:59PM 40.0722 -75.4172 88° East 306 352 7,200 -1,080 Descending FAA TRACON SMA TRACON (SMA)
06:00PM 40.0725 -75.3847 89° East 303 349 6,800 -1,200 Descending FAA TRACON SMA TRACON (SMA)
06:00PM 40.0733 -75.3517 88° East 298 343 6,400 -1,200 Descending FAA TRACON SMA TRACON (SMA)
06:00PM 40.0711 -75.3131 94° East 295 339 6,000 -600 Descending FAA TRACON SMA TRACON (SMA)
06:01PM 40.0636 -75.2797 106° East 307 353 6,000  Level FAA TRACON SMA TRACON (SMA)
06:01PM 40.0569 -75.2483 105° East 276 318 6,000  Level FAA TRACON SMA TRACON (SMA)
06:01PM 40.0492 -75.2136 106° East 253 291 6,000  Level FAA TRACON SMA TRACON (SMA)
06:02PM 40.0433 -75.1892 107° East 222 255 6,000  Level FAA TRACON SMA TRACON (SMA)
06:02PM 40.0378 -75.1642 106° East 231 266 6,000  Level FAA TRACON SMA TRACON (SMA)
06:02PM 40.0308 -75.1339 107° East 228 262 6,000  Level FAA TRACON SMA TRACON (SMA)
06:03PM 40.0253 -75.1094 107° East 227 261 6,000  Level FAA TRACON SMA TRACON (SMA)
06:03PM 40.0200 -75.0858 106° East 226 260 6,000 -600 Level FAA TRACON SMA TRACON (SMA)
06:03PM 40.0133 -75.0553 106° East 223 257 5,600 -1,080 Descending FAA TRACON SMA TRACON (SMA)
06:04PM 40.0083 -75.0311 105° East 223 257 5,300 -1,080 Descending FAA TRACON SMA TRACON (SMA)
06:04PM 40.0036 -75.0072 104° East 222 255 4,900 -1,380 Descending FAA TRACON SMA TRACON (SMA)
06:04PM 40.0003 -74.9772 98° East 219 252 4,400 -1,200 Descending FAA TRACON SMA TRACON (SMA)
06:05PM 40.0006 -74.9519 89° East 215 247 4,100 -600 Descending FAA TRACON SMA TRACON (SMA)
06:05PM 39.9969 -74.9300 102° East 205 236 4,000 -300 Descending FAA TRACON SMA TRACON (SMA)
06:05PM 39.9806 -74.9178 150° Southeast 181 208 3,900 -600 Descending FAA TRACON SMA TRACON (SMA)
06:06PM 39.9661 -74.9139 168° South 162 186 3,600 -1,080 Descending FAA TRACON SMA TRACON (SMA)
06:06PM 39.9553 -74.9253 219° Southwest 163 188 3,200 -960 Descending FAA TRACON SMA TRACON (SMA)
06:06PM 39.9456 -74.9397 229° Southwest 166 191 3,000 -360 Descending FAA TRACON SMA TRACON (SMA)
06:07PM 39.9342 -74.9575 230° Southwest 168 193 3,000  Level FAA TRACON SMA TRACON (SMA)
06:07PM 39.9256 -74.9725 233° Southwest 162 186 3,000  Level FAA TRACON SMA TRACON (SMA)
06:07PM 39.9208 -74.9903 251° West 171 197 3,000  Level FAA TRACON SMA TRACON (SMA)
06:08PM 39.9164 -75.0128 256° West 171 197 3,000  Level FAA TRACON SMA TRACON (SMA)